createdAt,value
2019-05-14T00:00:53.462Z,2.60
2019-05-14T00:01:53.445Z,2.60
2019-05-14T00:02:53.447Z,2.70
2019-05-14T00:03:53.445Z,2.70
2019-05-14T00:04:53.423Z,2.70
2019-05-14T00:05:53.545Z,2.90
2019-05-14T00:06:53.401Z,2.20
2019-05-14T00:07:53.385Z,2.60
2019-05-14T00:08:53.396Z,2.50
2019-05-14T00:09:53.372Z,2.80
2019-05-14T00:10:53.360Z,2.30
2019-05-14T00:11:53.338Z,2.80
2019-05-14T00:12:53.337Z,2.60
2019-05-14T00:13:53.336Z,2.90
2019-05-14T00:14:53.324Z,2.80
2019-05-14T00:15:53.304Z,3.20
2019-05-14T00:16:53.281Z,3.20
2019-05-14T00:17:53.284Z,3.00
2019-05-14T00:18:53.263Z,2.70
2019-05-14T00:20:06.274Z,3.20
2019-05-14T00:20:53.250Z,3.00
2019-05-14T00:21:53.224Z,2.70
2019-05-14T00:22:53.228Z,2.90
2019-05-14T00:23:53.215Z,2.80
2019-05-14T00:24:53.221Z,2.90
2019-05-14T00:25:53.184Z,2.90
2019-05-14T00:26:53.187Z,3.30
2019-05-14T00:27:53.168Z,2.70
2019-05-14T00:28:53.172Z,3.00
2019-05-14T00:29:53.167Z,3.70
2019-05-14T00:30:53.128Z,3.00
2019-05-14T00:31:53.123Z,3.10
2019-05-14T00:32:53.123Z,3.30
2019-05-14T00:33:53.110Z,3.30
2019-05-14T00:34:53.102Z,3.10
2019-05-14T00:35:53.089Z,3.20
2019-05-14T00:36:53.067Z,3.10
2019-05-14T00:37:53.065Z,2.90
2019-05-14T00:38:53.049Z,3.50
2019-05-14T00:39:53.059Z,3.20
2019-05-14T00:40:53.029Z,3.10
2019-05-14T00:41:53.025Z,3.10
2019-05-14T00:42:53.406Z,2.90
2019-05-14T00:43:52.996Z,3.50
2019-05-14T00:44:57.751Z,3.60
2019-05-14T00:45:52.971Z,3.30
2019-05-14T00:46:52.965Z,3.30
2019-05-14T00:47:52.953Z,3.10
2019-05-14T00:48:52.943Z,3.00
2019-05-14T00:49:52.950Z,3.10
2019-05-14T00:50:52.918Z,3.40
2019-05-14T00:51:52.916Z,3.10
2019-05-14T00:52:52.905Z,3.30
2019-05-14T00:53:52.888Z,3.40
2019-05-14T00:54:52.899Z,3.20
2019-05-14T00:55:52.877Z,3.20
2019-05-14T00:56:52.872Z,3.40
2019-05-14T00:57:52.850Z,3.90
2019-05-14T00:58:52.839Z,3.20
2019-05-14T00:59:52.829Z,3.40
2019-05-14T01:00:52.817Z,3.80
2019-05-14T01:01:52.807Z,3.40
2019-05-14T01:04:01.993Z,3.10
2019-05-14T01:05:02.984Z,3.50
2019-05-14T01:06:03.239Z,3.30
2019-05-14T01:07:02.949Z,3.20
2019-05-14T01:08:02.935Z,3.60
2019-05-14T01:09:02.923Z,3.30
2019-05-14T01:10:02.926Z,3.80
2019-05-14T01:11:02.913Z,3.60
2019-05-14T01:12:02.906Z,3.70
2019-05-14T01:13:02.887Z,3.50
2019-05-14T01:14:02.877Z,3.30
2019-05-14T01:15:10.221Z,3.80
2019-05-14T01:16:02.855Z,3.50
2019-05-14T01:17:02.855Z,4.10
2019-05-14T01:18:02.827Z,3.80
2019-05-14T01:19:02.817Z,4.00
2019-05-14T01:20:03.261Z,3.80
2019-05-14T01:21:02.804Z,3.50
2019-05-14T01:22:02.793Z,4.30
2019-05-14T01:23:02.774Z,3.90
2019-05-14T01:24:02.769Z,4.20
2019-05-14T01:25:02.775Z,4.00
2019-05-14T01:26:02.747Z,4.00
2019-05-14T01:27:02.730Z,3.80
2019-05-14T01:28:02.722Z,4.30
2019-05-14T01:29:02.721Z,3.80
2019-05-14T01:30:02.840Z,3.80
2019-05-14T01:31:02.701Z,4.10
2019-05-14T01:32:02.681Z,3.70
2019-05-14T01:33:02.673Z,4.00
2019-05-14T01:34:02.654Z,4.30
2019-05-14T01:35:02.649Z,3.60
2019-05-14T01:36:02.656Z,4.10
2019-05-14T01:37:02.717Z,3.90
2019-05-14T01:38:02.895Z,3.90
2019-05-14T01:39:02.603Z,3.70
2019-05-14T01:40:02.601Z,3.70
2019-05-14T01:41:02.604Z,4.30
2019-05-14T01:42:02.783Z,4.00
2019-05-14T01:43:02.816Z,4.10
2019-05-14T01:44:02.552Z,4.00
2019-05-14T01:45:02.750Z,4.10
2019-05-14T01:46:02.554Z,3.80
2019-05-14T01:47:02.509Z,4.00
2019-05-14T01:48:02.504Z,4.40
2019-05-14T01:49:02.505Z,4.20
2019-05-14T01:50:02.493Z,4.00
2019-05-14T01:51:02.504Z,4.40
2019-05-14T01:52:02.463Z,4.50
2019-05-14T01:53:03.226Z,4.00
2019-05-14T01:54:02.438Z,4.50
2019-05-14T01:55:02.426Z,4.30
2019-05-14T01:56:02.438Z,4.20
2019-05-14T01:57:02.412Z,4.40
2019-05-14T01:58:02.548Z,4.10
2019-05-14T01:59:02.391Z,4.00
2019-05-14T02:00:02.490Z,4.10
2019-05-14T02:01:02.383Z,4.00
2019-05-14T02:02:02.570Z,4.30
2019-05-14T02:03:02.348Z,4.40
2019-05-14T02:04:02.471Z,4.40
2019-05-14T02:05:02.326Z,4.50
2019-05-14T02:06:02.330Z,4.80
2019-05-14T02:07:02.497Z,4.30
2019-05-14T02:08:02.294Z,4.90
2019-05-14T02:09:02.279Z,4.80
2019-05-14T02:10:02.273Z,4.70
2019-05-14T02:11:02.284Z,4.90
2019-05-14T02:12:02.434Z,4.70
2019-05-14T02:13:02.242Z,4.60
2019-05-14T02:14:02.569Z,5.30
2019-05-14T02:15:02.207Z,4.60
2019-05-14T02:16:02.852Z,4.70
2019-05-14T02:17:02.208Z,5.00
2019-05-14T02:18:02.505Z,4.80
2019-05-14T02:19:02.177Z,4.70
2019-05-14T02:20:02.296Z,5.20
2019-05-14T02:21:02.167Z,4.80
2019-05-14T02:22:02.310Z,4.50
2019-05-14T02:23:02.140Z,5.20
2019-05-14T02:24:02.218Z,4.90
2019-05-14T02:25:02.461Z,4.70
2019-05-14T02:26:02.731Z,4.80
2019-05-14T02:27:02.179Z,5.00
2019-05-14T02:28:02.076Z,5.50
2019-05-14T02:29:02.165Z,5.30
2019-05-14T02:30:02.371Z,5.70
2019-05-14T02:31:03.820Z,5.50
2019-05-14T02:32:02.056Z,5.20
2019-05-14T02:33:02.040Z,5.40
2019-05-14T02:34:02.019Z,5.30
2019-05-14T02:35:02.000Z,5.30
2019-05-14T02:36:01.998Z,5.30
2019-05-14T02:37:01.992Z,5.20
2019-05-14T02:38:01.971Z,5.40
2019-05-14T02:39:01.964Z,5.50
2019-05-14T02:40:01.970Z,5.40
2019-05-14T02:41:01.949Z,6.00
2019-05-14T02:42:01.957Z,5.40
2019-05-14T02:43:01.919Z,6.10
2019-05-14T02:44:01.907Z,5.40
2019-05-14T02:45:01.896Z,5.40
2019-05-14T02:46:11.265Z,6.20
2019-05-14T02:47:01.887Z,5.90
2019-05-14T02:48:01.867Z,5.90
2019-05-14T02:49:01.855Z,5.30
2019-05-14T02:50:01.853Z,5.50
2019-05-14T02:51:01.838Z,6.40
2019-05-14T02:52:01.829Z,5.80
2019-05-14T02:53:01.812Z,5.40
2019-05-14T02:54:01.801Z,5.40
2019-05-14T02:55:01.795Z,5.20
2019-05-14T02:56:01.783Z,5.00
2019-05-14T02:57:01.782Z,5.50
2019-05-14T02:58:01.754Z,5.30
2019-05-14T02:59:05.612Z,5.90
2019-05-14T03:00:01.747Z,5.70
2019-05-14T03:01:01.737Z,6.30
2019-05-14T03:02:01.733Z,5.80
2019-05-14T03:03:01.714Z,6.00
2019-05-14T03:05:10.891Z,5.90
2019-05-14T03:06:11.878Z,6.00
2019-05-14T03:07:11.881Z,6.50
2019-05-14T03:08:11.847Z,6.10
2019-05-14T03:09:11.839Z,5.80
2019-05-14T03:10:11.836Z,5.90
2019-05-14T03:11:11.819Z,6.20
2019-05-14T03:12:11.835Z,5.80
2019-05-14T03:13:11.802Z,6.20
2019-05-14T03:14:11.808Z,6.00
2019-05-14T03:15:11.782Z,6.50
2019-05-14T03:16:25.974Z,6.40
2019-05-14T03:17:12.158Z,6.50
2019-05-14T03:18:11.752Z,6.80
2019-05-14T03:19:11.728Z,6.30
2019-05-14T03:20:11.721Z,6.20
2019-05-14T03:21:11.723Z,6.50
2019-05-14T03:22:11.695Z,6.20
2019-05-14T03:23:18.197Z,6.40
2019-05-14T03:24:11.679Z,6.10
2019-05-14T03:25:11.664Z,6.30
2019-05-14T03:26:11.649Z,6.50
2019-05-14T03:27:11.654Z,6.70
2019-05-14T03:28:11.657Z,7.00
2019-05-14T03:29:11.624Z,6.60
2019-05-14T03:30:13.277Z,7.10
2019-05-14T03:31:13.102Z,6.80
2019-05-14T03:32:13.634Z,7.10
2019-05-14T03:33:13.487Z,6.60
2019-05-14T03:34:13.699Z,6.80
2019-05-14T03:35:13.473Z,6.80
2019-05-14T03:36:17.679Z,7.30
2019-05-14T03:37:13.508Z,7.30
2019-05-14T03:38:11.554Z,7.10
2019-05-14T03:39:11.515Z,7.40
2019-05-14T03:40:11.505Z,7.40
2019-05-14T03:41:14.107Z,7.00
2019-05-14T03:42:11.492Z,6.60
2019-05-14T03:43:11.499Z,6.80
2019-05-14T03:44:11.477Z,6.60
2019-05-14T03:45:11.448Z,6.80
2019-05-14T03:46:11.443Z,6.50
2019-05-14T03:47:11.427Z,6.40
2019-05-14T03:48:11.443Z,7.30
2019-05-14T03:49:11.406Z,7.00
2019-05-14T03:50:11.397Z,7.10
2019-05-14T03:51:11.386Z,7.20
2019-05-14T03:52:11.367Z,7.00
2019-05-14T03:53:11.389Z,7.30
2019-05-14T03:54:12.653Z,7.30
2019-05-14T03:55:11.362Z,7.20
2019-05-14T03:56:11.332Z,7.00
2019-05-14T03:57:11.328Z,7.30
2019-05-14T03:58:11.343Z,7.40
2019-05-14T03:59:11.399Z,7.00
2019-05-14T04:00:11.301Z,6.80
2019-05-14T04:01:11.322Z,7.20
2019-05-14T04:02:11.272Z,7.70
2019-05-14T04:03:11.265Z,7.20
2019-05-14T04:04:11.253Z,7.50
2019-05-14T04:05:11.259Z,7.40
2019-05-14T04:06:11.219Z,7.50
2019-05-14T04:07:11.222Z,6.80
2019-05-14T04:08:11.222Z,7.30
2019-05-14T04:09:11.197Z,7.30
2019-05-14T04:10:11.186Z,7.40
2019-05-14T04:11:11.163Z,7.30
2019-05-14T04:12:11.152Z,7.20
2019-05-14T04:13:11.173Z,7.10
2019-05-14T04:14:11.169Z,7.50
2019-05-14T04:15:11.139Z,7.10
2019-05-14T04:16:11.110Z,7.40
2019-05-14T04:17:15.450Z,7.50
2019-05-14T04:18:11.101Z,7.90
2019-05-14T04:19:11.100Z,7.50
2019-05-14T04:20:11.076Z,7.10
2019-05-14T04:21:11.065Z,7.70
2019-05-14T04:22:11.077Z,7.40
2019-05-14T04:23:11.053Z,7.20
2019-05-14T04:24:11.044Z,7.90
2019-05-14T04:25:11.398Z,7.90
2019-05-14T04:26:11.026Z,7.60
2019-05-14T04:27:12.959Z,7.60
2019-05-14T04:28:10.989Z,7.60
2019-05-14T04:29:11.009Z,7.90
2019-05-14T04:30:10.959Z,7.70
2019-05-14T04:31:10.985Z,7.30
2019-05-14T04:32:11.061Z,8.00
2019-05-14T04:33:10.937Z,7.40
2019-05-14T04:34:10.995Z,7.20
2019-05-14T04:35:10.904Z,7.30
2019-05-14T04:36:10.910Z,8.10
2019-05-14T04:37:10.888Z,7.80
2019-05-14T04:38:10.876Z,7.50
2019-05-14T04:39:10.886Z,8.00
2019-05-14T04:40:10.873Z,7.50
2019-05-14T04:41:10.859Z,8.00
2019-05-14T04:42:10.827Z,7.60
2019-05-14T04:43:10.828Z,7.20
2019-05-14T04:44:10.823Z,7.80
2019-05-14T04:45:11.503Z,7.40
2019-05-14T04:46:11.083Z,6.80
2019-05-14T04:47:30.132Z,7.00
2019-05-14T04:48:27.313Z,7.60
2019-05-14T04:49:10.781Z,7.40
2019-05-14T04:50:11.065Z,7.70
2019-05-14T04:51:10.748Z,7.30
2019-05-14T04:52:10.753Z,7.20
2019-05-14T04:53:10.714Z,7.80
2019-05-14T04:54:10.718Z,8.20
2019-05-14T04:55:10.724Z,7.20
2019-05-14T04:56:10.678Z,7.30
2019-05-14T04:57:10.922Z,7.30
2019-05-14T04:58:10.667Z,7.40
2019-05-14T04:59:10.837Z,7.40
2019-05-14T05:00:12.322Z,7.40
2019-05-14T05:01:10.650Z,7.30
2019-05-14T05:02:10.634Z,7.30
2019-05-14T05:03:12.715Z,7.00
2019-05-14T05:04:10.618Z,7.70
2019-05-14T05:06:19.799Z,7.60
2019-05-14T05:07:20.780Z,7.40
2019-05-14T05:08:20.756Z,6.80
2019-05-14T05:09:20.754Z,6.70
2019-05-14T05:10:20.749Z,6.30
2019-05-14T05:11:21.577Z,6.70
2019-05-14T05:12:20.719Z,6.90
2019-05-14T05:13:20.706Z,6.70
2019-05-14T05:14:23.760Z,6.70
2019-05-14T05:15:20.722Z,6.60
2019-05-14T05:16:20.677Z,6.70
2019-05-14T05:17:20.666Z,6.40
2019-05-14T05:18:20.655Z,6.10
2019-05-14T05:19:20.636Z,6.10
2019-05-14T05:20:20.646Z,6.40
2019-05-14T05:21:20.623Z,5.80
2019-05-14T05:22:20.653Z,6.30
2019-05-14T05:23:20.619Z,6.30
2019-05-14T05:24:20.614Z,6.40
2019-05-14T05:25:20.611Z,6.40
2019-05-14T05:26:20.595Z,6.30
2019-05-14T05:27:20.598Z,6.10
2019-05-14T05:28:20.555Z,6.50
2019-05-14T05:29:20.540Z,6.40
2019-05-14T05:30:20.535Z,6.40
2019-05-14T05:31:20.522Z,6.20
2019-05-14T05:32:20.500Z,6.10
2019-05-14T05:33:20.484Z,6.30
2019-05-14T05:34:20.491Z,6.20
2019-05-14T05:35:20.494Z,6.40
2019-05-14T05:36:20.498Z,6.00
2019-05-14T05:37:20.451Z,5.50
2019-05-14T05:38:20.439Z,6.30
2019-05-14T05:39:20.435Z,6.10
2019-05-14T05:40:20.420Z,6.20
2019-05-14T05:41:20.440Z,6.20
2019-05-14T05:42:20.398Z,6.20
2019-05-14T05:43:20.684Z,6.20
2019-05-14T05:44:20.377Z,6.30
2019-05-14T05:45:20.761Z,6.10
2019-05-14T05:46:20.368Z,6.10
2019-05-14T05:47:20.365Z,6.30
2019-05-14T05:48:20.392Z,5.90
2019-05-14T05:49:20.317Z,5.80
2019-05-14T05:50:20.317Z,6.20
2019-05-14T05:51:20.306Z,5.70
2019-05-14T05:52:20.273Z,5.50
2019-05-14T05:53:20.267Z,6.20
2019-05-14T05:54:20.260Z,6.40
2019-05-14T05:55:20.262Z,6.20
2019-05-14T05:56:20.253Z,6.40
2019-05-14T05:57:20.364Z,6.00
2019-05-14T05:58:20.215Z,6.30
2019-05-14T05:59:20.198Z,6.00
2019-05-14T06:00:20.202Z,6.00
2019-05-14T06:01:20.211Z,6.20
2019-05-14T06:02:20.187Z,6.50
2019-05-14T06:03:20.876Z,6.20
2019-05-14T06:04:20.149Z,6.10
2019-05-14T06:05:20.134Z,6.10
2019-05-14T06:06:20.145Z,6.20
2019-05-14T06:07:20.222Z,6.40
2019-05-14T06:08:20.104Z,6.60
2019-05-14T06:09:20.209Z,6.40
2019-05-14T06:10:20.083Z,6.70
2019-05-14T06:11:20.100Z,6.70
2019-05-14T06:12:20.336Z,6.30
2019-05-14T06:13:20.062Z,6.00
2019-05-14T06:14:20.039Z,6.80
2019-05-14T06:15:20.032Z,6.60
2019-05-14T06:16:20.096Z,7.00
2019-05-14T06:17:20.006Z,6.60
2019-05-14T06:18:22.165Z,6.70
2019-05-14T06:19:20.000Z,6.10
2019-05-14T06:20:20.003Z,6.90
2019-05-14T06:21:19.984Z,6.60
2019-05-14T06:22:19.974Z,6.30
2019-05-14T06:23:19.938Z,6.20
2019-05-14T06:24:19.942Z,6.50
2019-05-14T06:25:21.107Z,6.30
2019-05-14T06:26:19.932Z,6.80
2019-05-14T06:27:19.910Z,6.80
2019-05-14T06:28:20.914Z,6.40
2019-05-14T06:29:19.885Z,6.90
2019-05-14T06:30:19.971Z,6.80
2019-05-14T06:31:20.851Z,6.50
2019-05-14T06:32:19.851Z,6.70
2019-05-14T06:33:19.826Z,7.90
2019-05-14T06:34:19.828Z,7.60
2019-05-14T06:35:19.818Z,8.90
2019-05-14T06:36:19.945Z,8.00
2019-05-14T06:37:19.842Z,7.60
2019-05-14T06:38:19.781Z,7.70
2019-05-14T06:39:19.759Z,7.70
2019-05-14T06:40:19.762Z,7.30
2019-05-14T06:41:19.750Z,7.80
2019-05-14T06:42:19.748Z,7.20
2019-05-14T06:43:19.772Z,7.00
2019-05-14T06:44:19.709Z,7.40
2019-05-14T06:45:19.697Z,7.40
2019-05-14T06:46:19.757Z,7.30
2019-05-14T06:47:19.708Z,7.30
2019-05-14T06:48:30.766Z,8.20
2019-05-14T06:49:19.658Z,7.10
2019-05-14T06:50:20.527Z,6.70
2019-05-14T06:51:20.283Z,6.70
2019-05-14T06:52:19.665Z,6.90
2019-05-14T06:53:19.611Z,6.90
2019-05-14T06:54:19.821Z,7.10
2019-05-14T06:55:19.587Z,7.30
2019-05-14T06:56:21.664Z,7.20
2019-05-14T06:57:19.575Z,6.60
2019-05-14T06:58:20.476Z,6.70
2019-05-14T06:59:19.545Z,6.70
2019-05-14T07:00:19.541Z,6.50
2019-05-14T07:01:19.689Z,6.50
2019-05-14T07:02:19.579Z,6.40
2019-05-14T07:03:19.510Z,6.90
2019-05-14T07:04:19.499Z,6.70
2019-05-14T07:05:19.812Z,6.60
2019-05-14T07:07:29.972Z,5.80
2019-05-14T07:08:29.657Z,5.90
2019-05-14T07:09:29.642Z,5.90
2019-05-14T07:10:29.631Z,6.10
2019-05-14T07:11:29.615Z,6.00
2019-05-14T07:12:29.639Z,5.90
2019-05-14T07:13:29.614Z,5.80
2019-05-14T07:14:29.593Z,5.40
2019-05-14T07:15:29.578Z,5.90
2019-05-14T07:16:29.569Z,5.50
2019-05-14T07:17:30.087Z,5.60
2019-05-14T07:18:45.215Z,5.90
2019-05-14T07:19:29.796Z,6.50
2019-05-14T07:20:29.539Z,6.50
2019-05-14T07:21:29.512Z,6.60
2019-05-14T07:22:29.581Z,5.50
2019-05-14T07:23:29.502Z,5.30
2019-05-14T07:24:29.486Z,5.20
2019-05-14T07:25:29.481Z,5.60
2019-05-14T07:26:29.777Z,5.40
2019-05-14T07:27:29.464Z,6.00
2019-05-14T07:28:29.773Z,5.60
2019-05-14T07:29:29.543Z,6.40
2019-05-14T07:30:29.404Z,6.20
2019-05-14T07:31:29.837Z,6.60
2019-05-14T07:32:29.442Z,6.60
2019-05-14T07:33:29.617Z,7.10
2019-05-14T07:34:29.359Z,6.70
2019-05-14T07:35:29.386Z,6.50
2019-05-14T07:36:29.546Z,6.30
2019-05-14T07:37:29.491Z,6.80
2019-05-14T07:38:29.695Z,5.90
2019-05-14T07:39:29.403Z,6.50
2019-05-14T07:40:29.304Z,6.40
2019-05-14T07:41:29.288Z,6.80
2019-05-14T07:42:29.308Z,7.00
2019-05-14T07:43:29.283Z,6.10
2019-05-14T07:44:29.773Z,7.20
2019-05-14T07:45:29.242Z,6.10
2019-05-14T07:46:29.267Z,5.30
2019-05-14T07:47:29.313Z,5.10
2019-05-14T07:48:29.216Z,5.40
2019-05-14T07:49:29.303Z,5.70
2019-05-14T07:50:29.392Z,6.40
2019-05-14T07:51:29.174Z,6.10
2019-05-14T07:52:29.180Z,7.20
2019-05-14T07:53:38.803Z,6.50
2019-05-14T07:54:29.135Z,6.40
2019-05-14T07:55:29.139Z,6.90
2019-05-14T07:56:29.911Z,6.80
2019-05-14T07:57:29.170Z,5.90
2019-05-14T07:58:29.285Z,6.10
2019-05-14T07:59:32.138Z,5.50
2019-05-14T08:00:29.918Z,6.20
2019-05-14T08:01:29.912Z,5.80
2019-05-14T08:02:29.180Z,6.00
2019-05-14T08:03:29.907Z,5.90
2019-05-14T08:04:29.204Z,5.80
2019-05-14T08:05:29.026Z,5.70
2019-05-14T08:06:29.129Z,5.10
2019-05-14T08:07:30.148Z,5.30
2019-05-14T08:08:29.478Z,5.70
2019-05-14T08:09:29.033Z,6.00
2019-05-14T08:10:29.097Z,5.20
2019-05-14T08:11:28.951Z,4.80
2019-05-14T08:12:28.943Z,5.50
2019-05-14T08:13:28.984Z,4.90
2019-05-14T08:14:33.644Z,4.70
2019-05-14T08:15:28.905Z,5.40
2019-05-14T08:16:29.219Z,5.00
2019-05-14T08:17:28.890Z,5.70
2019-05-14T08:18:29.356Z,5.10
2019-05-14T08:19:31.398Z,4.70
2019-05-14T08:20:28.852Z,5.50
2019-05-14T08:21:29.302Z,5.40
2019-05-14T08:22:29.280Z,4.90
2019-05-14T08:23:28.856Z,5.20
2019-05-14T08:24:30.021Z,4.70
2019-05-14T08:25:28.803Z,5.30
2019-05-14T08:26:29.471Z,5.60
2019-05-14T08:27:31.078Z,5.00
2019-05-14T08:28:29.134Z,4.80
2019-05-14T08:29:28.835Z,5.20
2019-05-14T08:30:28.782Z,5.10
2019-05-14T08:31:29.404Z,5.10
2019-05-14T08:32:28.713Z,5.10
2019-05-14T08:33:29.134Z,4.90
2019-05-14T08:34:32.211Z,4.30
2019-05-14T08:35:29.105Z,4.70
2019-05-14T08:36:28.792Z,4.20
2019-05-14T08:37:28.673Z,4.00
2019-05-14T08:38:30.534Z,4.60
2019-05-14T08:39:28.753Z,4.30
2019-05-14T08:40:28.833Z,4.40
2019-05-14T08:41:28.950Z,4.80
2019-05-14T08:42:29.167Z,4.20
2019-05-14T08:43:29.365Z,4.60
2019-05-14T08:44:29.348Z,4.90
2019-05-14T08:45:28.581Z,5.10
2019-05-14T08:46:28.570Z,4.70
2019-05-14T08:47:29.185Z,4.30
2019-05-14T08:48:30.475Z,4.50
2019-05-14T08:49:39.047Z,4.80
2019-05-14T08:50:28.514Z,4.10
2019-05-14T08:51:29.555Z,4.10
2019-05-14T08:52:28.961Z,4.10
2019-05-14T08:53:28.932Z,4.50
2019-05-14T08:54:28.575Z,4.20
2019-05-14T08:55:29.632Z,4.10
2019-05-14T08:56:28.458Z,3.70
2019-05-14T08:57:29.242Z,3.60
2019-05-14T08:58:29.911Z,3.20
2019-05-14T08:59:28.798Z,3.40
2019-05-14T09:00:28.696Z,3.50
2019-05-14T09:01:29.239Z,3.60
2019-05-14T09:02:28.731Z,3.40
2019-05-14T09:03:28.925Z,3.10
2019-05-14T09:04:30.338Z,3.30
2019-05-14T09:05:28.749Z,3.00
2019-05-14T09:06:29.002Z,3.10
2019-05-14T09:08:38.942Z,3.40
2019-05-14T09:09:38.536Z,3.50
2019-05-14T09:10:40.268Z,2.90
2019-05-14T09:11:45.258Z,2.30
2019-05-14T09:12:38.906Z,2.70
2019-05-14T09:13:38.578Z,2.30
2019-05-14T09:14:38.955Z,2.70
2019-05-14T09:15:38.603Z,2.80
2019-05-14T09:16:46.462Z,2.90
2019-05-14T09:17:38.989Z,2.60
2019-05-14T09:18:38.879Z,2.40
2019-05-14T09:19:39.486Z,2.00
2019-05-14T09:20:38.535Z,2.20
2019-05-14T09:21:39.738Z,2.30
2019-05-14T09:22:39.762Z,2.00
2019-05-14T09:23:39.135Z,2.60
2019-05-14T09:24:38.887Z,2.50
2019-05-14T09:25:46.934Z,2.50
2019-05-14T09:26:39.096Z,2.50
2019-05-14T09:27:38.943Z,2.40
2019-05-14T09:28:39.192Z,2.40
2019-05-14T09:29:39.487Z,2.70
2019-05-14T09:30:38.328Z,2.80
2019-05-14T09:31:39.275Z,3.00
2019-05-14T09:32:38.989Z,2.90
2019-05-14T09:33:38.923Z,3.00
2019-05-14T09:34:39.314Z,3.50
2019-05-14T09:35:38.762Z,2.90
2019-05-14T09:36:39.526Z,2.80
2019-05-14T09:37:39.578Z,3.20
2019-05-14T09:38:42.336Z,2.90
2019-05-14T09:40:49.104Z,3.70
2019-05-14T09:41:49.954Z,3.30
2019-05-14T09:42:50.247Z,4.00
2019-05-14T09:43:49.852Z,3.90
2019-05-14T09:44:49.893Z,3.90
2019-05-14T09:45:49.814Z,4.10
2019-05-14T09:46:50.626Z,4.80
2019-05-14T09:47:50.745Z,4.40
2019-05-14T09:48:49.812Z,3.50
2019-05-14T09:49:49.797Z,3.50
2019-05-14T09:50:49.760Z,3.20
2019-05-14T09:51:50.631Z,3.10
2019-05-14T09:52:49.746Z,4.00
2019-05-14T09:53:49.731Z,3.90
2019-05-14T09:54:49.798Z,4.00
2019-05-14T09:55:49.698Z,3.30
2019-05-14T09:56:50.034Z,4.60
2019-05-14T09:57:49.681Z,3.90
2019-05-14T09:58:49.916Z,4.20
2019-05-14T09:59:53.165Z,4.00
2019-05-14T10:00:49.653Z,2.60
2019-05-14T10:01:50.642Z,2.60
2019-05-14T10:02:49.651Z,2.70
2019-05-14T10:03:49.852Z,2.40
2019-05-14T10:04:49.639Z,2.10
2019-05-14T10:05:50.129Z,2.20
2019-05-14T10:06:49.580Z,2.10
2019-05-14T10:07:49.774Z,2.20
2019-05-14T10:08:49.572Z,2.40
2019-05-14T10:09:49.583Z,2.30
2019-05-14T10:10:49.565Z,2.50
2019-05-14T10:11:49.539Z,2.00
2019-05-14T10:12:56.010Z,2.50
2019-05-14T10:13:51.368Z,2.20
2019-05-14T10:14:49.527Z,2.20
2019-05-14T10:15:49.488Z,2.40
2019-05-14T10:16:49.469Z,2.50
2019-05-14T10:17:50.144Z,2.50
2019-05-14T10:18:52.719Z,3.00
2019-05-14T10:19:49.984Z,3.10
2019-05-14T10:20:49.659Z,3.40
2019-05-14T10:21:49.508Z,3.60
2019-05-14T10:22:49.432Z,3.30
2019-05-14T10:23:49.418Z,2.80
2019-05-14T10:24:49.511Z,2.40
2019-05-14T10:25:49.416Z,2.40
2019-05-14T10:26:49.379Z,2.40
2019-05-14T10:27:49.631Z,2.40
2019-05-14T10:28:49.342Z,2.10
2019-05-14T10:29:49.353Z,2.00
2019-05-14T10:30:49.323Z,2.00
2019-05-14T10:31:50.033Z,2.30
2019-05-14T10:32:49.403Z,2.00
2019-05-14T10:33:49.285Z,2.40
2019-05-14T10:34:49.292Z,2.60
2019-05-14T10:35:49.304Z,3.00
2019-05-14T10:36:49.275Z,2.90
2019-05-14T10:37:49.305Z,2.50
2019-05-14T10:38:49.261Z,2.50
2019-05-14T10:39:49.234Z,2.40
2019-05-14T10:40:49.199Z,2.30
2019-05-14T10:41:49.199Z,2.30
2019-05-14T10:42:49.560Z,2.40
2019-05-14T10:43:49.814Z,2.50
2019-05-14T10:44:49.211Z,2.30
2019-05-14T10:45:49.700Z,2.50
2019-05-14T10:46:49.146Z,2.20
2019-05-14T10:47:49.503Z,2.10
2019-05-14T10:48:49.116Z,2.50
2019-05-14T10:49:49.135Z,2.70
2019-05-14T10:50:59.058Z,2.60
2019-05-14T10:51:49.093Z,2.40
2019-05-14T10:52:49.152Z,2.60
2019-05-14T10:53:49.283Z,2.40
2019-05-14T10:54:55.726Z,2.10
2019-05-14T10:55:49.100Z,2.50
2019-05-14T10:56:49.529Z,2.70
2019-05-14T10:57:54.118Z,3.00
2019-05-14T10:58:49.292Z,2.50
2019-05-14T10:59:49.020Z,2.50
2019-05-14T11:00:49.585Z,2.40
2019-05-14T11:01:48.972Z,2.50
2019-05-14T11:02:49.265Z,2.40
2019-05-14T11:03:48.950Z,2.20
2019-05-14T11:04:48.997Z,2.50
2019-05-14T11:05:48.994Z,2.50
2019-05-14T11:06:49.175Z,2.50
2019-05-14T11:07:48.925Z,2.40
2019-05-14T11:08:49.427Z,2.30
2019-05-14T11:09:48.956Z,2.60
2019-05-14T11:10:49.841Z,2.40
2019-05-14T11:11:48.855Z,2.00
2019-05-14T11:12:50.676Z,2.10
2019-05-14T11:13:48.831Z,2.50
2019-05-14T11:14:49.379Z,2.20
2019-05-14T11:15:48.950Z,2.00
2019-05-14T11:16:48.850Z,2.10
2019-05-14T11:17:49.002Z,2.70
2019-05-14T11:18:49.775Z,2.30
2019-05-14T11:19:48.789Z,2.30
2019-05-14T11:20:51.423Z,2.10
2019-05-14T11:21:48.743Z,2.70
2019-05-14T11:22:49.246Z,2.10
2019-05-14T11:23:49.237Z,2.30
2019-05-14T11:24:49.287Z,2.90
2019-05-14T11:25:48.901Z,2.30
2019-05-14T11:26:49.032Z,2.60
2019-05-14T11:27:49.354Z,2.40
2019-05-14T11:28:49.246Z,2.40
2019-05-14T11:29:49.233Z,2.60
2019-05-14T11:30:49.404Z,2.30
2019-05-14T11:31:48.743Z,2.40
2019-05-14T11:32:49.325Z,2.60
2019-05-14T11:33:49.781Z,2.30
2019-05-14T11:34:48.613Z,2.80
2019-05-14T11:35:48.607Z,2.50
2019-05-14T11:36:49.668Z,2.50
2019-05-14T11:37:48.572Z,2.20
2019-05-14T11:38:50.859Z,2.40
2019-05-14T11:39:48.874Z,2.20
2019-05-14T11:41:59.006Z,2.40
2019-05-14T11:42:59.470Z,2.40
2019-05-14T11:43:59.422Z,2.00
2019-05-14T11:44:59.185Z,2.30
2019-05-14T11:45:59.530Z,2.00
2019-05-14T11:47:02.445Z,1.70
2019-05-14T11:47:59.155Z,2.00
2019-05-14T11:48:59.562Z,2.00
2019-05-14T11:49:59.305Z,2.00
2019-05-14T11:50:59.625Z,1.80
2019-05-14T11:52:06.801Z,2.00
2019-05-14T11:52:59.105Z,2.00
2019-05-14T11:53:59.085Z,2.10
2019-05-14T11:54:59.080Z,1.90
2019-05-14T11:55:59.110Z,2.00
2019-05-14T11:56:59.095Z,2.00
2019-05-14T11:57:59.063Z,2.10
2019-05-14T11:58:59.201Z,2.30
2019-05-14T11:59:59.036Z,1.90
2019-05-14T12:00:59.010Z,2.20
2019-05-14T12:01:59.463Z,1.80
2019-05-14T12:02:58.986Z,1.90
2019-05-14T12:03:59.762Z,2.10
2019-05-14T12:04:58.956Z,1.80
2019-05-14T12:05:58.983Z,2.00
2019-05-14T12:06:59.339Z,1.80
2019-05-14T12:07:58.934Z,2.30
2019-05-14T12:08:58.930Z,2.80
2019-05-14T12:09:58.918Z,2.10
2019-05-14T12:10:59.380Z,2.10
2019-05-14T12:11:58.952Z,2.10
2019-05-14T12:12:58.882Z,2.30
2019-05-14T12:13:59.897Z,2.10
2019-05-14T12:14:58.851Z,2.10
2019-05-14T12:15:59.174Z,2.00
2019-05-14T12:16:59.984Z,2.00
2019-05-14T12:17:59.715Z,1.70
2019-05-14T12:18:59.149Z,1.80
2019-05-14T12:19:59.494Z,2.00
2019-05-14T12:20:59.361Z,2.00
2019-05-14T12:22:07.034Z,2.20
2019-05-14T12:22:59.251Z,2.20
2019-05-14T12:24:04.331Z,2.20
2019-05-14T12:24:58.729Z,2.10
2019-05-14T12:25:58.923Z,2.10
2019-05-14T12:26:58.838Z,2.20
2019-05-14T12:27:59.048Z,2.20
2019-05-14T12:28:59.404Z,2.30
2019-05-14T12:29:59.817Z,2.00
2019-05-14T12:30:58.675Z,1.90
2019-05-14T12:31:58.749Z,1.80
2019-05-14T12:32:59.141Z,2.00
2019-05-14T12:33:58.641Z,1.90
2019-05-14T12:34:59.361Z,1.60
2019-05-14T12:36:00.526Z,1.80
2019-05-14T12:36:58.625Z,2.00
2019-05-14T12:37:58.744Z,1.70
2019-05-14T12:38:59.249Z,1.90
2019-05-14T12:39:59.052Z,1.80
2019-05-14T12:40:58.644Z,1.70
2019-05-14T12:41:58.563Z,1.60
2019-05-14T12:42:59.282Z,1.40
2019-05-14T12:43:59.054Z,1.50
2019-05-14T12:44:58.716Z,1.70
2019-05-14T12:45:59.331Z,1.80
2019-05-14T12:46:58.848Z,1.70
2019-05-14T12:47:58.629Z,1.90
2019-05-14T12:48:58.966Z,1.70
2019-05-14T12:49:58.774Z,1.80
2019-05-14T12:50:59.447Z,1.90
2019-05-14T12:51:59.231Z,1.70
2019-05-14T12:52:58.877Z,1.70
2019-05-14T12:53:58.480Z,1.90
2019-05-14T12:54:59.739Z,1.70
2019-05-14T12:55:58.392Z,1.80
2019-05-14T12:56:58.411Z,2.40
2019-05-14T12:57:59.771Z,2.00
2019-05-14T12:58:58.466Z,1.80
2019-05-14T12:59:58.398Z,1.70
2019-05-14T13:00:59.479Z,2.10
2019-05-14T13:01:58.790Z,1.80
2019-05-14T13:02:58.679Z,1.90
2019-05-14T13:03:59.221Z,1.80
2019-05-14T13:05:00.148Z,1.70
2019-05-14T13:05:58.683Z,2.20
2019-05-14T13:06:59.794Z,1.70
2019-05-14T13:07:58.264Z,1.90
2019-05-14T13:08:58.731Z,1.60
2019-05-14T13:09:58.466Z,1.70
2019-05-14T13:10:58.762Z,1.80
2019-05-14T13:11:58.719Z,1.80
2019-05-14T13:12:58.800Z,1.70
2019-05-14T13:13:58.754Z,1.70
2019-05-14T13:14:58.181Z,1.70
2019-05-14T13:15:58.181Z,2.00
2019-05-14T13:16:59.792Z,1.80
2019-05-14T13:17:58.163Z,2.00
2019-05-14T13:18:59.802Z,1.60
2019-05-14T13:19:58.137Z,1.60
2019-05-14T13:20:58.114Z,1.70
2019-05-14T13:22:12.273Z,2.10
2019-05-14T13:22:58.103Z,1.60
2019-05-14T13:23:58.092Z,1.70
2019-05-14T13:24:58.214Z,1.60
2019-05-14T13:25:58.803Z,1.40
2019-05-14T13:26:58.831Z,1.50